Time;durP1;ratioP1;P1;durP2;ratioP2;P2;SDS_P1;SDS_P2;PMS_P1;PMS_P2;Temp;Humidity;BMP_temperature;BMP_pressure;BME280_temperature;BME280_humidity;BME280_pressure;Samples;Min_cycle;Max_cycle;Signal;HPM_P1;HPM_P2
2023/04/25 00:01:42;;;;;;;;;;;9.60;73.00;;;;;;9174431;19;19929;-65
2023/04/25 00:04:48;;;;;;;;;;;9.60;72.40;;;;;;9173985;19;19951;-65
2023/04/25 00:07:53;;;;;;;;;;;9.60;72.50;;;;;;9175667;19;19923;-65
2023/04/25 00:11:01;;;;;;;;;;;9.50;72.40;;;;;;9179287;19;19918;-65
2023/04/25 00:14:04;;;;;;;;;;;9.50;72.40;;;;;;9178116;19;19926;-66
2023/04/25 00:17:11;;;;;;;;;;;9.50;72.40;;;;;;9176316;19;19918;-66
2023/04/25 00:20:15;;;;;;;;;;;9.40;72.50;;;;;;9180217;19;19921;-65
2023/04/25 00:23:20;;;;;;;;;;;9.40;72.40;;;;;;9180663;19;20264;-65
2023/04/25 00:26:26;;;;;;;;;;;9.40;72.50;;;;;;9180332;19;19915;-65
2023/04/25 00:29:32;;;;;;;;;;;9.40;72.50;;;;;;9175340;19;19919;-65
2023/04/25 00:32:35;;;;;;;;;;;9.40;72.50;;;;;;9180353;19;19919;-66
2023/04/25 00:35:41;;;;;;;;;;;9.40;72.40;;;;;;9179549;19;19918;-65
2023/04/25 00:38:45;;;;;;;;;;;9.40;72.40;;;;;;9179443;19;19933;-65
2023/04/25 00:41:54;;;;;;;;;;;9.40;72.50;;;;;;9179519;19;19922;-66
2023/04/25 00:44:58;;;;;;;;;;;9.30;72.40;;;;;;9178145;19;19931;-66
2023/04/25 00:48:06;;;;;;;;;;;9.30;72.40;;;;;;9180506;19;19919;-65
2023/04/25 00:51:11;;;;;;;;;;;9.30;72.50;;;;;;9179585;19;19915;-66
2023/04/25 00:54:17;;;;;;;;;;;9.20;72.40;;;;;;9176986;19;20453;-66
2023/04/25 00:57:23;;;;;;;;;;;9.30;72.40;;;;;;9176722;19;19923;-65
2023/04/25 01:00:28;;;;;;;;;;;9.20;72.40;;;;;;9178473;19;20260;-65
2023/04/25 01:03:35;;;;;;;;;;;9.20;72.40;;;;;;9178396;19;19982;-64
2023/04/25 01:06:41;;;;;;;;;;;9.20;73.00;;;;;;9176622;19;19915;-64
2023/04/25 01:09:45;;;;;;;;;;;9.20;72.40;;;;;;9178232;19;19974;-65
2023/04/25 01:12:53;;;;;;;;;;;9.20;72.40;;;;;;9177025;19;19923;-65
2023/04/25 01:15:57;;;;;;;;;;;9.20;72.40;;;;;;9177915;19;19938;-65
2023/04/25 01:19:03;;;;;;;;;;;9.20;72.40;;;;;;9177561;19;19922;-65
2023/04/25 01:22:10;;;;;;;;;;;9.10;72.30;;;;;;9177914;19;19925;-65
2023/04/25 01:25:16;;;;;;;;;;;9.10;72.40;;;;;;9178267;19;19919;-65
2023/04/25 01:28:20;;;;;;;;;;;9.10;72.30;;;;;;9175856;19;19918;-65
2023/04/25 01:31:25;;;;;;;;;;;9.10;72.40;;;;;;9172654;19;19922;-66
2023/04/25 01:34:30;;;;;;;;;;;9.00;72.40;;;;;;9176280;19;19919;-65
2023/04/25 01:37:39;;;;;;;;;;;9.00;72.40;;;;;;9176030;19;19922;-65
2023/04/25 01:40:43;;;;;;;;;;;8.90;72.50;;;;;;9174733;19;19919;-65
2023/04/25 01:43:48;;;;;;;;;;;8.90;72.50;;;;;;9177504;19;19918;-65
2023/04/25 01:46:53;;;;;;;;;;;8.90;72.50;;;;;;9175523;19;20270;-65
2023/04/25 01:49:59;;;;;;;;;;;8.80;72.40;;;;;;9177033;19;20284;-65
2023/04/25 01:53:05;;;;;;;;;;;8.80;72.40;;;;;;9175534;19;19982;-64
2023/04/25 01:56:11;;;;;;;;;;;8.80;72.50;;;;;;9174940;19;20244;-66
2023/04/25 01:59:16;;;;;;;;;;;8.80;72.40;;;;;;9175414;19;19937;-67
2023/04/25 02:02:38;;;;;;;;;;;8.80;72.50;;;;;;9175377;19;19915;-65
2023/04/25 02:05:49;;;;;;;;;;;8.70;72.50;;;;;;9171205;19;19918;-65
2023/04/25 02:08:57;;;;;;;;;;;8.70;72.50;;;;;;9169604;19;19925;-65
2023/04/25 02:12:01;;;;;;;;;;;8.70;72.50;;;;;;9172139;19;19918;-65
2023/04/25 02:15:13;;;;;;;;;;;8.60;72.60;;;;;;9176230;19;19927;-65
2023/04/25 02:18:31;;;;;;;;;;;8.60;72.60;;;;;;9170870;19;19923;-65
2023/04/25 02:21:37;;;;;;;;;;;8.60;72.60;;;;;;9174818;19;19933;-65
2023/04/25 02:24:43;;;;;;;;;;;8.60;72.70;;;;;;9175938;19;19922;-65
2023/04/25 02:27:48;;;;;;;;;;;8.60;72.60;;;;;;9174920;19;20268;-65
2023/04/25 02:30:52;;;;;;;;;;;8.60;72.70;;;;;;9168664;19;19982;-64
2023/04/25 02:33:58;;;;;;;;;;;8.50;72.60;;;;;;9174736;19;19930;-64
2023/04/25 02:37:02;;;;;;;;;;;8.50;72.60;;;;;;9173422;19;19990;-65
2023/04/25 02:40:10;;;;;;;;;;;8.50;72.60;;;;;;9175458;19;19922;-65
2023/04/25 02:43:15;;;;;;;;;;;8.50;72.60;;;;;;9184007;19;19918;-65
2023/04/25 02:46:21;;;;;;;;;;;8.50;72.70;;;;;;9181580;19;19929;-65
2023/04/25 02:49:42;;;;;;;;;;;8.50;72.70;;;;;;9182954;19;19922;-66
2023/04/25 02:52:48;;;;;;;;;;;8.40;72.70;;;;;;9181885;19;20274;-65
2023/04/25 02:55:59;;;;;;;;;;;8.40;72.60;;;;;;9180708;19;20340;-65
2023/04/25 02:59:05;;;;;;;;;;;8.40;72.60;;;;;;9181857;19;20246;-65
2023/04/25 03:02:09;;;;;;;;;;;8.40;72.70;;;;;;9180643;19;19993;-65
2023/04/25 03:05:16;;;;;;;;;;;8.30;72.60;;;;;;9182406;19;19918;-64
2023/04/25 03:08:20;;;;;;;;;;;8.30;72.70;;;;;;9181551;19;19942;-65
2023/04/25 03:11:28;;;;;;;;;;;8.30;72.70;;;;;;9181285;19;19915;-65
2023/04/25 03:14:32;;;;;;;;;;;8.30;72.70;;;;;;9181547;19;20358;-64
2023/04/25 03:17:38;;;;;;;;;;;8.30;72.70;;;;;;9181361;19;19917;-65
2023/04/25 03:20:42;;;;;;;;;;;8.30;72.70;;;;;;9180429;19;19919;-64
2023/04/25 03:23:48;;;;;;;;;;;8.30;72.80;;;;;;9182286;19;19915;-64
2023/04/25 03:26:54;;;;;;;;;;;8.30;72.70;;;;;;9181672;19;20353;-65
2023/04/25 03:30:00;;;;;;;;;;;8.30;72.70;;;;;;9176672;19;19918;-65
2023/04/25 03:33:04;;;;;;;;;;;8.30;72.70;;;;;;9179719;19;19952;-65
2023/04/25 03:36:10;;;;;;;;;;;8.30;72.70;;;;;;9181984;19;19919;-64
2023/04/25 03:39:15;;;;;;;;;;;8.30;72.70;;;;;;9179936;19;19925;-65
2023/04/25 03:42:27;;;;;;;;;;;8.30;73.30;;;;;;9181432;19;20011;-64
2023/04/25 03:45:31;;;;;;;;;;;8.30;72.70;;;;;;9180053;19;19929;-65
2023/04/25 03:48:36;;;;;;;;;;;8.30;72.70;;;;;;9179111;19;19925;-65
2023/04/25 03:51:40;;;;;;;;;;;8.30;72.70;;;;;;9178265;19;19926;-65
2023/04/25 03:54:46;;;;;;;;;;;8.40;72.70;;;;;;9179243;19;20341;-64
2023/04/25 03:57:55;;;;;;;;;;;8.40;72.70;;;;;;9177436;19;19959;-65
2023/04/25 04:01:02;;;;;;;;;;;8.30;72.70;;;;;;9179784;19;20256;-65
2023/04/25 04:04:08;;;;;;;;;;;8.40;72.80;;;;;;9179232;19;20523;-65
2023/04/25 04:07:14;;;;;;;;;;;8.40;72.70;;;;;;9180605;19;19914;-65
2023/04/25 04:10:21;;;;;;;;;;;8.40;72.80;;;;;;9179044;19;19959;-64
2023/04/25 04:13:29;;;;;;;;;;;8.40;72.70;;;;;;9177013;19;19918;-65
2023/04/25 04:16:33;;;;;;;;;;;8.40;72.70;;;;;;9176873;19;19919;-64
2023/04/25 04:19:40;;;;;;;;;;;8.40;72.70;;;;;;9171569;19;19925;-65
2023/04/25 04:22:54;;;;;;;;;;;8.40;72.70;;;;;;9179211;19;19929;-69
2023/04/25 04:26:02;;;;;;;;;;;8.40;72.80;;;;;;9179069;19;19915;-70
2023/04/25 04:29:08;;;;;;;;;;;8.40;72.80;;;;;;9180470;19;20022;-68
2023/04/25 04:32:19;;;;;;;;;;;8.40;72.80;;;;;;9179953;19;19929;-69
2023/04/25 04:35:24;;;;;;;;;;;8.40;72.80;;;;;;9178623;19;19918;-69
2023/04/25 04:38:30;;;;;;;;;;;8.40;72.80;;;;;;9175757;19;19919;-69
2023/04/25 04:41:38;;;;;;;;;;;8.40;72.70;;;;;;9177747;19;19922;-68
2023/04/25 04:44:55;;;;;;;;;;;8.40;72.80;;;;;;9179793;19;19919;-68
2023/04/25 04:48:22;;;;;;;;;;;8.40;72.80;;;;;;9179836;19;19948;-68
2023/04/25 04:51:34;;;;;;;;;;;8.40;72.80;;;;;;9179358;19;19923;-68
2023/04/25 04:55:00;;;;;;;;;;;8.40;73.50;;;;;;9178363;19;19914;-69
2023/04/25 04:58:12;;;;;;;;;;;8.40;72.90;;;;;;9176971;19;20721;-69
2023/04/25 05:01:28;;;;;;;;;;;8.40;72.90;;;;;;9179042;19;19941;-69
2023/04/25 05:04:40;;;;;;;;;;;8.40;72.80;;;;;;9175712;19;19930;-69
2023/04/25 05:08:00;;;;;;;;;;;8.40;72.90;;;;;;9177606;19;19915;-69
2023/04/25 05:11:23;;;;;;;;;;;8.30;72.80;;;;;;9177191;19;19922;-69
2023/04/25 05:15:00;;;;;;;;;;;8.30;72.90;;;;;;9178346;19;19950;-69
2023/04/25 05:18:26;;;;;;;;;;;8.30;72.90;;;;;;9176020;19;19915;-69
2023/04/25 05:21:52;;;;;;;;;;;8.30;72.90;;;;;;9176871;19;19923;-68
2023/04/25 05:25:13;;;;;;;;;;;8.30;72.90;;;;;;9177005;19;19911;-68
2023/04/25 05:28:33;;;;;;;;;;;8.40;72.90;;;;;;9176225;19;19926;-68
2023/04/25 05:31:53;;;;;;;;;;;8.40;72.90;;;;;;9172246;19;19918;-68
2023/04/25 05:34:59;;;;;;;;;;;8.30;72.90;;;;;;9176924;19;19926;-68
2023/04/25 05:38:08;;;;;;;;;;;8.40;72.90;;;;;;9173519;19;19926;-68
2023/04/25 05:41:37;;;;;;;;;;;8.40;72.90;;;;;;9177285;19;19922;-68
2023/04/25 05:45:07;;;;;;;;;;;8.40;72.90;;;;;;9177085;19;19925;-68
2023/04/25 05:48:31;;;;;;;;;;;8.40;72.80;;;;;;9175914;19;19926;-68
2023/04/25 05:51:45;;;;;;;;;;;8.40;72.80;;;;;;9177602;19;20248;-69
2023/04/25 05:54:51;;;;;;;;;;;8.40;72.80;;;;;;9177606;19;19926;-69
2023/04/25 05:57:58;;;;;;;;;;;8.50;72.90;;;;;;9172053;19;19918;-69
2023/04/25 06:01:03;;;;;;;;;;;8.50;72.90;;;;;;9174015;19;19918;-67
2023/04/25 06:04:09;;;;;;;;;;;8.50;72.90;;;;;;9176991;19;19918;-69
2023/04/25 06:07:15;;;;;;;;;;;8.50;72.90;;;;;;9175276;19;19919;-68
2023/04/25 06:10:22;;;;;;;;;;;8.50;72.90;;;;;;9174937;19;20291;-69
2023/04/25 06:13:26;;;;;;;;;;;8.50;72.90;;;;;;9157857;19;19941;-69
2023/04/25 06:16:32;;;;;;;;;;;8.60;73.00;;;;;;9158696;19;19923;-69
2023/04/25 06:19:37;;;;;;;;;;;8.50;72.90;;;;;;9158036;19;20571;-69
2023/04/25 06:22:45;;;;;;;;;;;8.60;72.90;;;;;;9158271;19;19918;-69
2023/04/25 06:25:48;;;;;;;;;;;8.60;72.90;;;;;;9157988;19;19926;-68
2023/04/25 06:28:54;;;;;;;;;;;8.50;72.90;;;;;;9159299;19;20434;-65
2023/04/25 06:31:58;;;;;;;;;;;8.60;72.90;;;;;;9149559;19;19926;-65
2023/04/25 06:35:05;;;;;;;;;;;8.60;72.90;;;;;;9157060;19;20396;-65
2023/04/25 06:38:12;;;;;;;;;;;8.60;72.90;;;;;;9169516;19;19962;-64
2023/04/25 06:41:19;;;;;;;;;;;8.70;72.90;;;;;;9162111;19;19914;-64
2023/04/25 06:44:26;;;;;;;;;;;8.70;72.90;;;;;;9164554;19;20355;-64
2023/04/25 06:47:32;;;;;;;;;;;8.80;72.90;;;;;;9162609;19;19918;-65
2023/04/25 06:50:36;;;;;;;;;;;8.90;73.10;;;;;;9165891;19;19972;-64
2023/04/25 06:53:44;;;;;;;;;;;9.00;73.00;;;;;;9161122;19;19918;-64
2023/04/25 06:57:00;;;;;;;;;;;9.10;73.00;;;;;;9168720;19;19963;-65
2023/04/25 07:00:09;;;;;;;;;;;9.30;73.00;;;;;;9164904;19;19921;-64
2023/04/25 07:03:14;;;;;;;;;;;9.40;73.00;;;;;;9162373;19;20276;-64
2023/04/25 07:06:21;;;;;;;;;;;9.50;72.90;;;;;;9165113;19;19922;-64
2023/04/25 07:09:26;;;;;;;;;;;9.60;72.90;;;;;;9159722;19;20344;-64
2023/04/25 07:12:33;;;;;;;;;;;9.70;72.80;;;;;;9159526;19;19922;-66
2023/04/25 07:15:37;;;;;;;;;;;9.80;72.70;;;;;;9164079;19;19918;-66
2023/04/25 07:18:44;;;;;;;;;;;9.80;72.60;;;;;;9160750;19;20437;-66
2023/04/25 07:21:48;;;;;;;;;;;9.90;72.70;;;;;;9163628;19;19918;-65
2023/04/25 07:24:56;;;;;;;;;;;10.00;72.70;;;;;;9166767;19;19926;-65
2023/04/25 07:28:02;;;;;;;;;;;10.10;72.70;;;;;;9167458;19;19922;-65
2023/04/25 07:31:08;;;;;;;;;;;10.10;72.60;;;;;;9168287;19;19914;-65
2023/04/25 07:34:12;;;;;;;;;;;10.20;72.50;;;;;;9176786;19;19929;-67
2023/04/25 07:37:18;;;;;;;;;;;10.20;72.50;;;;;;9169105;19;19918;-66
2023/04/25 07:40:38;;;;;;;;;;;10.20;72.60;;;;;;9172750;19;19922;-66
2023/04/25 07:43:46;;;;;;;;;;;10.30;72.60;;;;;;9165805;19;20018;-64
2023/04/25 07:46:50;;;;;;;;;;;10.40;72.60;;;;;;9172725;19;19919;-65
2023/04/25 07:49:57;;;;;;;;;;;10.50;72.60;;;;;;9173977;19;19915;-66
2023/04/25 07:53:01;;;;;;;;;;;10.60;72.70;;;;;;9170316;19;19957;-66
2023/04/25 07:56:14;;;;;;;;;;;10.70;72.70;;;;;;9169873;19;19915;-66
2023/04/25 07:59:21;;;;;;;;;;;10.90;72.60;;;;;;9173262;19;19923;-65
2023/04/25 08:02:28;;;;;;;;;;;11.00;72.60;;;;;;9173392;19;19921;-65
2023/04/25 08:05:32;;;;;;;;;;;11.20;72.50;;;;;;9171760;19;19929;-64
2023/04/25 08:08:42;;;;;;;;;;;11.50;72.50;;;;;;9169470;19;19922;-64
2023/04/25 08:11:51;;;;;;;;;;;11.50;72.40;;;;;;9172645;19;19918;-64
2023/04/25 08:15:02;;;;;;;;;;;11.60;72.30;;;;;;9170348;19;19912;-65
2023/04/25 08:18:10;;;;;;;;;;;11.70;72.20;;;;;;9167287;19;19952;-64
2023/04/25 08:21:16;;;;;;;;;;;11.80;72.10;;;;;;9176230;19;19927;-63
2023/04/25 08:24:21;;;;;;;;;;;11.80;72.10;;;;;;9171617;19;20579;-63
2023/04/25 08:27:28;;;;;;;;;;;11.90;72.00;;;;;;9170408;19;19923;-64
2023/04/25 08:30:33;;;;;;;;;;;12.00;72.00;;;;;;9163375;19;19910;-63
2023/04/25 08:33:39;;;;;;;;;;;12.00;72.00;;;;;;9171890;19;19922;-64
2023/04/25 08:36:57;;;;;;;;;;;12.10;72.00;;;;;;9168755;19;19926;-63
2023/04/25 08:40:16;;;;;;;;;;;12.20;71.80;;;;;;9168978;19;19925;-63
2023/04/25 08:43:46;;;;;;;;;;;12.20;71.80;;;;;;9169750;19;20333;-63
2023/04/25 08:46:53;;;;;;;;;;;12.20;71.80;;;;;;9177860;19;19933;-65
2023/04/25 08:50:05;;;;;;;;;;;12.20;71.50;;;;;;9168228;19;19930;-66
2023/04/25 08:53:13;;;;;;;;;;;12.20;71.50;;;;;;9168512;19;19922;-64
2023/04/25 08:56:17;;;;;;;;;;;12.10;71.50;;;;;;9165731;19;20601;-67
2023/04/25 08:59:25;;;;;;;;;;;12.10;71.60;;;;;;9167659;19;19919;-67
2023/04/25 09:02:29;;;;;;;;;;;11.80;71.50;;;;;;9168288;19;19926;-67
2023/04/25 09:05:36;;;;;;;;;;;12.10;71.60;;;;;;9177395;19;19918;-68
2023/04/25 09:08:40;;;;;;;;;;;12.20;71.70;;;;;;9171018;19;19919;-67
2023/04/25 09:11:46;;;;;;;;;;;12.20;71.70;;;;;;9167118;19;19919;-66
2023/04/25 09:15:07;;;;;;;;;;;12.20;71.60;;;;;;9169017;19;19922;-66
2023/04/25 09:18:38;;;;;;;;;;;12.20;71.60;;;;;;9166690;19;19938;-66
2023/04/25 09:21:42;;;;;;;;;;;12.20;71.50;;;;;;9167527;19;20344;-67
2023/04/25 09:24:49;;;;;;;;;;;12.30;71.60;;;;;;9170598;19;19917;-67
2023/04/25 09:27:55;;;;;;;;;;;12.20;71.40;;;;;;9173030;19;19978;-67
2023/04/25 09:31:11;;;;;;;;;;;12.30;71.40;;;;;;9162198;19;19918;-67
2023/04/25 09:34:22;;;;;;;;;;;12.20;71.40;;;;;;9168394;19;19919;-68
2023/04/25 09:37:34;;;;;;;;;;;12.20;71.40;;;;;;9165026;19;19934;-68
2023/04/25 09:40:57;;;;;;;;;;;12.10;71.30;;;;;;9169149;19;19927;-68
2023/04/25 09:44:14;;;;;;;;;;;12.10;71.30;;;;;;9164456;19;19919;-67
2023/04/25 09:47:23;;;;;;;;;;;12.00;71.20;;;;;;9167526;19;19951;-68
2023/04/25 09:50:29;;;;;;;;;;;11.90;71.20;;;;;;9169042;19;19926;-67
2023/04/25 09:53:42;;;;;;;;;;;11.80;71.10;;;;;;9170915;19;19937;-67
2023/04/25 09:56:55;;;;;;;;;;;11.80;71.20;;;;;;9171673;19;20249;-67
2023/04/25 10:00:04;;;;;;;;;;;11.80;71.30;;;;;;9166863;19;20354;-67
2023/04/25 10:03:22;;;;;;;;;;;11.70;71.30;;;;;;9166745;19;19937;-67
2023/04/25 10:06:43;;;;;;;;;;;11.80;71.40;;;;;;9164484;19;19941;-67
2023/04/25 10:09:50;;;;;;;;;;;11.80;71.60;;;;;;9167462;19;19918;-68
2023/04/25 10:12:54;;;;;;;;;;;11.90;71.60;;;;;;9166715;19;19919;-67
2023/04/25 10:16:00;;;;;;;;;;;12.10;71.60;;;;;;9164650;19;20315;-68
2023/04/25 10:19:06;;;;;;;;;;;12.20;71.60;;;;;;9163084;19;19956;-67
2023/04/25 10:22:14;;;;;;;;;;;12.40;71.50;;;;;;9168076;19;20338;-67
2023/04/25 10:25:18;;;;;;;;;;;12.60;71.30;;;;;;9166879;19;19915;-67
2023/04/25 10:28:24;;;;;;;;;;;12.80;71.20;;;;;;9166892;19;19929;-67
2023/04/25 10:31:28;;;;;;;;;;;13.00;71.20;;;;;;9161715;19;19918;-68
2023/04/25 10:34:42;;;;;;;;;;;13.20;71.00;;;;;;9163832;19;19915;-69
2023/04/25 10:37:59;;;;;;;;;;;13.40;70.90;;;;;;9162163;19;20485;-69
2023/04/25 10:41:08;;;;;;;;;;;13.60;70.80;;;;;;9166732;19;19929;-69
2023/04/25 10:44:11;;;;;;;;;;;13.80;70.80;;;;;;9164445;19;19943;-69
2023/04/25 10:47:35;;;;;;;;;;;13.90;70.70;;;;;;9163845;19;19925;-69
2023/04/25 10:50:41;;;;;;;;;;;13.90;70.40;;;;;;9160759;19;19925;-69
2023/04/25 10:53:47;;;;;;;;;;;14.00;70.30;;;;;;9166872;19;20751;-69
2023/04/25 10:56:53;;;;;;;;;;;14.00;70.30;;;;;;9166364;19;19934;-70
2023/04/25 11:00:05;;;;;;;;;;;14.10;70.60;;;;;;9162751;19;19919;-69
2023/04/25 11:03:08;;;;;;;;;;;14.20;70.40;;;;;;9167795;19;19925;-69
2023/04/25 11:06:22;;;;;;;;;;;14.20;70.70;;;;;;9169111;19;20280;-69
2023/04/25 11:09:26;;;;;;;;;;;14.30;70.50;;;;;;9181648;19;20476;-69
2023/04/25 11:12:33;;;;;;;;;;;14.40;70.30;;;;;;9172453;19;19919;-70
2023/04/25 11:15:36;;;;;;;;;;;14.50;70.90;;;;;;9173783;19;19930;-70
2023/04/25 11:18:43;;;;;;;;;;;14.60;70.30;;;;;;9171539;19;19914;-70
2023/04/25 11:21:48;;;;;;;;;;;14.60;70.30;;;;;;9178427;19;20642;-70
2023/04/25 11:24:54;;;;;;;;;;;14.70;70.50;;;;;;9182605;19;19930;-70
2023/04/25 11:28:00;;;;;;;;;;;14.90;70.30;;;;;;9181139;19;19923;-70
2023/04/25 11:31:06;;;;;;;;;;;15.00;70.60;;;;;;9175519;19;19919;-70
2023/04/25 11:34:10;;;;;;;;;;;15.20;70.10;;;;;;9179475;19;19926;-70
2023/04/25 11:37:17;;;;;;;;;;;15.30;70.40;;;;;;9182069;19;19922;-70
2023/04/25 11:40:21;;;;;;;;;;;15.40;70.30;;;;;;9179391;19;19915;-70
2023/04/25 11:43:27;;;;;;;;;;;15.50;69.90;;;;;;9180726;19;19911;-70
2023/04/25 11:46:31;;;;;;;;;;;15.60;69.80;;;;;;9178587;19;19927;-70
2023/04/25 11:49:37;;;;;;;;;;;15.60;69.60;;;;;;9181474;19;19923;-70
2023/04/25 11:52:43;;;;;;;;;;;15.40;69.60;;;;;;9180757;19;19923;-70
2023/04/25 11:55:49;;;;;;;;;;;15.30;69.60;;;;;;9180445;19;20482;-69
2023/04/25 11:59:02;;;;;;;;;;;15.10;69.80;;;;;;9160145;19;20341;-70
2023/04/25 12:02:08;;;;;;;;;;;15.00;69.50;;;;;;9161737;19;19923;-69
2023/04/25 12:05:13;;;;;;;;;;;14.80;70.00;;;;;;9164094;19;19925;-69
2023/04/25 12:08:39;;;;;;;;;;;14.60;69.60;;;;;;9164883;19;19929;-70
2023/04/25 12:11:43;;;;;;;;;;;14.40;69.60;;;;;;9163281;19;19930;-70
2023/04/25 12:14:51;;;;;;;;;;;14.20;70.00;;;;;;9165992;19;19918;-70
2023/04/25 12:17:55;;;;;;;;;;;14.00;70.00;;;;;;9164673;19;19915;-70
2023/04/25 12:21:01;;;;;;;;;;;13.90;70.30;;;;;;9169225;19;19918;-70
2023/04/25 12:24:14;;;;;;;;;;;13.80;71.00;;;;;;9165448;19;19929;-70
2023/04/25 12:27:20;;;;;;;;;;;13.80;70.10;;;;;;9166792;19;19925;-70
2023/04/25 12:30:23;;;;;;;;;;;13.70;70.40;;;;;;9164118;19;19935;-70
2023/04/25 12:33:30;;;;;;;;;;;13.80;70.50;;;;;;9163321;19;19917;-70
2023/04/25 12:36:33;;;;;;;;;;;13.90;70.20;;;;;;9164122;19;20713;-70
2023/04/25 12:39:41;;;;;;;;;;;13.90;70.30;;;;;;9160136;19;20462;-70
2023/04/25 12:42:45;;;;;;;;;;;14.00;70.30;;;;;;9164100;19;19922;-69
2023/04/25 12:45:51;;;;;;;;;;;14.00;70.00;;;;;;9168383;19;19919;-65
2023/04/25 12:48:56;;;;;;;;;;;14.10;69.80;;;;;;9167375;19;20430;-65
2023/04/25 12:52:13;;;;;;;;;;;14.10;69.80;;;;;;9166573;19;19923;-65
2023/04/25 12:55:19;;;;;;;;;;;14.10;69.90;;;;;;9167678;19;19943;-65
2023/04/25 12:58:25;;;;;;;;;;;14.10;69.90;;;;;;9162871;19;19922;-65
2023/04/25 13:01:29;;;;;;;;;;;14.10;69.80;;;;;;9163116;19;19930;-65
2023/04/25 13:04:35;;;;;;;;;;;14.10;69.70;;;;;;9164312;19;19918;-65
2023/04/25 13:07:39;;;;;;;;;;;14.10;69.90;;;;;;9165074;19;20352;-65
2023/04/25 13:10:46;;;;;;;;;;;14.00;69.80;;;;;;9161212;19;19914;-65
2023/04/25 13:13:50;;;;;;;;;;;14.00;69.90;;;;;;9160786;19;19975;-65
2023/04/25 13:16:56;;;;;;;;;;;14.10;69.70;;;;;;9160756;19;19918;-64
2023/04/25 13:20:00;;;;;;;;;;;14.00;69.80;;;;;;9158653;19;19930;-65
2023/04/25 13:23:06;;;;;;;;;;;14.10;69.60;;;;;;9164618;19;19925;-65
2023/04/25 13:26:11;;;;;;;;;;;14.10;69.70;;;;;;9160074;19;19919;-65
2023/04/25 13:29:17;;;;;;;;;;;14.10;69.40;;;;;;9157687;19;19929;-65
2023/04/25 13:32:21;;;;;;;;;;;14.00;69.40;;;;;;9160277;19;19943;-64
2023/04/25 13:35:27;;;;;;;;;;;14.00;69.30;;;;;;9160576;19;19930;-64
2023/04/25 13:38:30;;;;;;;;;;;14.00;69.30;;;;;;9160530;19;19919;-65
2023/04/25 13:41:38;;;;;;;;;;;13.90;69.20;;;;;;9162501;19;20490;-64
2023/04/25 13:44:42;;;;;;;;;;;13.90;69.20;;;;;;9161504;19;19923;-64
2023/04/25 13:47:48;;;;;;;;;;;13.90;69.40;;;;;;9164006;19;20248;-65
2023/04/25 13:50:52;;;;;;;;;;;13.80;69.30;;;;;;9160484;19;19960;-64
2023/04/25 13:53:57;;;;;;;;;;;13.80;69.20;;;;;;9157607;19;19922;-65
2023/04/25 13:57:03;;;;;;;;;;;13.70;69.10;;;;;;9160490;19;19926;-65
2023/04/25 14:00:10;;;;;;;;;;;13.70;69.00;;;;;;9159817;19;19919;-66
2023/04/25 14:03:14;;;;;;;;;;;13.70;69.20;;;;;;9160237;19;19938;-66
2023/04/25 14:06:22;;;;;;;;;;;13.70;69.50;;;;;;9161994;19;19933;-65
2023/04/25 14:09:27;;;;;;;;;;;13.80;69.20;;;;;;9160654;19;19926;-64
2023/04/25 14:12:34;;;;;;;;;;;13.80;69.10;;;;;;9158839;19;19921;-64
2023/04/25 14:15:38;;;;;;;;;;;13.90;68.90;;;;;;9160694;19;19922;-65
2023/04/25 14:18:44;;;;;;;;;;;13.90;69.00;;;;;;9158814;19;19923;-65
2023/04/25 14:21:48;;;;;;;;;;;13.90;68.70;;;;;;9160245;19;19929;-65
2023/04/25 14:24:54;;;;;;;;;;;14.00;68.70;;;;;;9162967;19;20363;-65
2023/04/25 14:28:00;;;;;;;;;;;13.90;69.20;;;;;;9166154;19;20013;-65
2023/04/25 14:31:05;;;;;;;;;;;14.00;68.60;;;;;;9160860;19;19914;-65
2023/04/25 14:34:10;;;;;;;;;;;13.90;68.40;;;;;;9159730;19;19918;-65
2023/04/25 14:37:16;;;;;;;;;;;13.80;68.30;;;;;;9161218;19;20268;-65
2023/04/25 14:40:22;;;;;;;;;;;13.70;68.40;;;;;;9166763;19;19926;-65
2023/04/25 14:43:30;;;;;;;;;;;13.50;68.40;;;;;;9167032;19;19925;-64
2023/04/25 14:46:34;;;;;;;;;;;13.30;68.50;;;;;;9167785;19;19919;-66
2023/04/25 14:49:40;;;;;;;;;;;13.20;68.80;;;;;;9166072;19;19911;-67
2023/04/25 14:52:44;;;;;;;;;;;13.00;68.70;;;;;;9165541;19;19964;-66
2023/04/25 14:55:50;;;;;;;;;;;12.90;68.50;;;;;;9168967;19;19922;-66
2023/04/25 14:58:56;;;;;;;;;;;12.80;68.90;;;;;;9164521;19;19930;-66
2023/04/25 15:02:02;;;;;;;;;;;12.80;68.60;;;;;;9167434;19;19922;-66
2023/04/25 15:05:08;;;;;;;;;;;12.70;68.60;;;;;;9165353;19;20543;-66
2023/04/25 15:08:14;;;;;;;;;;;12.60;68.50;;;;;;9171340;19;19919;-66
2023/04/25 15:11:17;;;;;;;;;;;12.50;68.60;;;;;;9176779;19;19927;-66
2023/04/25 15:14:26;;;;;;;;;;;12.50;69.00;;;;;;9174179;19;19926;-65
2023/04/25 15:17:30;;;;;;;;;;;12.40;68.70;;;;;;9181016;19;19918;-65
2023/04/25 15:20:36;;;;;;;;;;;12.40;68.90;;;;;;9178100;19;19918;-65
2023/04/25 15:23:40;;;;;;;;;;;12.30;68.60;;;;;;9182461;19;19926;-65
2023/04/25 15:26:46;;;;;;;;;;;12.30;69.00;;;;;;9182407;19;20051;-65
2023/04/25 15:29:52;;;;;;;;;;;12.20;68.80;;;;;;9177129;19;20352;-65
2023/04/25 15:32:58;;;;;;;;;;;12.20;68.70;;;;;;9181784;19;19922;-65
2023/04/25 15:36:03;;;;;;;;;;;12.20;68.90;;;;;;9182313;19;19918;-65
2023/04/25 15:39:08;;;;;;;;;;;12.10;68.60;;;;;;9180476;19;20016;-66
2023/04/25 15:42:12;;;;;;;;;;;12.10;68.80;;;;;;9180366;19;20257;-65
2023/04/25 15:45:21;;;;;;;;;;;12.00;68.70;;;;;;9179238;19;20336;-65
2023/04/25 15:48:24;;;;;;;;;;;12.00;68.70;;;;;;9181334;19;19914;-64
2023/04/25 15:51:30;;;;;;;;;;;12.00;68.80;;;;;;9180052;19;19915;-65
2023/04/25 15:54:34;;;;;;;;;;;12.00;68.70;;;;;;9180547;19;19927;-65
2023/04/25 15:57:40;;;;;;;;;;;12.00;68.70;;;;;;9172713;19;19915;-65
2023/04/25 16:00:47;;;;;;;;;;;12.00;68.40;;;;;;9159471;19;20014;-64
2023/04/25 16:03:53;;;;;;;;;;;12.00;68.80;;;;;;9164548;19;20278;-64
2023/04/25 16:07:00;;;;;;;;;;;11.90;68.50;;;;;;9163536;19;19983;-65
2023/04/25 16:10:06;;;;;;;;;;;11.90;68.50;;;;;;9170323;19;20597;-64
2023/04/25 16:13:10;;;;;;;;;;;11.90;68.40;;;;;;9170015;19;19922;-67
2023/04/25 16:16:18;;;;;;;;;;;11.80;68.50;;;;;;9173571;19;19923;-66
2023/04/25 16:19:21;;;;;;;;;;;11.80;68.30;;;;;;9172875;19;19923;-66
2023/04/25 16:22:27;;;;;;;;;;;11.70;68.40;;;;;;9173740;19;19936;-66
2023/04/25 16:25:31;;;;;;;;;;;11.70;68.40;;;;;;9172956;19;19922;-65
2023/04/25 16:28:37;;;;;;;;;;;11.60;68.50;;;;;;9168195;19;19918;-65
2023/04/25 16:31:43;;;;;;;;;;;11.70;68.30;;;;;;9167790;19;19974;-65
2023/04/25 16:34:49;;;;;;;;;;;11.60;68.40;;;;;;9171977;19;20771;-66
2023/04/25 16:37:53;;;;;;;;;;;11.50;68.30;;;;;;9172843;19;19918;-66
2023/04/25 16:40:58;;;;;;;;;;;11.50;68.80;;;;;;9168953;19;20699;-65
2023/04/25 16:44:02;;;;;;;;;;;11.50;68.30;;;;;;9172550;19;19925;-66
2023/04/25 16:47:10;;;;;;;;;;;11.40;68.60;;;;;;9171659;19;19919;-67
2023/04/25 16:50:17;;;;;;;;;;;11.40;68.40;;;;;;9172539;19;19921;-66
2023/04/25 16:53:22;;;;;;;;;;;11.40;69.10;;;;;;9170867;19;19922;-66
2023/04/25 16:56:26;;;;;;;;;;;11.40;68.60;;;;;;9172683;19;19918;-67
2023/04/25 16:59:32;;;;;;;;;;;11.30;68.50;;;;;;9169038;19;19914;-66
2023/04/25 17:02:38;;;;;;;;;;;11.20;68.10;;;;;;9171892;19;19923;-64
2023/04/25 17:05:43;;;;;;;;;;;11.00;68.30;;;;;;9171858;19;19914;-64
2023/04/25 17:08:47;;;;;;;;;;;10.90;68.40;;;;;;9172220;19;20256;-64
2023/04/25 17:11:53;;;;;;;;;;;10.70;68.40;;;;;;9165469;19;19919;-65
2023/04/25 17:14:59;;;;;;;;;;;10.70;68.50;;;;;;9158157;19;20607;-65
2023/04/25 17:18:06;;;;;;;;;;;10.60;68.40;;;;;;9165094;19;19915;-66
2023/04/25 17:21:10;;;;;;;;;;;10.60;68.10;;;;;;9167114;19;19933;-65
2023/04/25 17:24:17;;;;;;;;;;;10.60;68.10;;;;;;9172698;19;19915;-65
2023/04/25 17:27:20;;;;;;;;;;;10.50;68.10;;;;;;9172211;19;19918;-65
2023/04/25 17:30:26;;;;;;;;;;;10.50;67.90;;;;;;9165609;19;19915;-65
2023/04/25 17:33:32;;;;;;;;;;;10.50;67.90;;;;;;9167900;19;19932;-65
2023/04/25 17:36:37;;;;;;;;;;;10.40;67.80;;;;;;9169553;19;20383;-65
2023/04/25 17:39:41;;;;;;;;;;;10.40;67.80;;;;;;9167640;19;19962;-65
2023/04/25 17:42:47;;;;;;;;;;;10.40;67.90;;;;;;9169337;19;19922;-66
2023/04/25 17:45:51;;;;;;;;;;;10.40;67.90;;;;;;9171833;19;19923;-67
2023/04/25 17:48:59;;;;;;;;;;;10.30;67.90;;;;;;9167904;19;19922;-65
2023/04/25 17:52:03;;;;;;;;;;;10.30;67.90;;;;;;9167827;19;20266;-65
2023/04/25 17:55:09;;;;;;;;;;;10.30;67.90;;;;;;9169026;19;19930;-65
2023/04/25 17:58:13;;;;;;;;;;;10.30;67.90;;;;;;9168822;19;19919;-65
2023/04/25 18:01:25;;;;;;;;;;;10.30;68.10;;;;;;9167176;19;19925;-65
2023/04/25 18:04:31;;;;;;;;;;;10.20;67.90;;;;;;9168586;19;19951;-65
2023/04/25 18:07:37;;;;;;;;;;;10.20;67.90;;;;;;9167973;19;19926;-66
2023/04/25 18:10:41;;;;;;;;;;;10.20;68.00;;;;;;9168066;19;19948;-65
2023/04/25 18:13:47;;;;;;;;;;;10.20;68.00;;;;;;9164873;19;19915;-65
2023/04/25 18:16:51;;;;;;;;;;;10.10;68.00;;;;;;9168567;19;19922;-65